createdAt,value
2023-12-27T00:07:30.199Z,80.38
2023-12-27T00:11:30.341Z,80.02
2023-12-27T00:15:11.160Z,79.85
2023-12-27T00:21:54.741Z,78.63
2023-12-27T00:25:09.022Z,77.45
2023-12-27T00:28:24.649Z,77.05
2023-12-27T00:32:28.764Z,76.76
2023-12-27T00:36:33.053Z,76.77
2023-12-27T00:40:32.170Z,76.76
2023-12-27T00:44:31.140Z,76.81
2023-12-27T00:48:30.033Z,76.70
2023-12-27T00:53:04.964Z,76.69
2023-12-27T00:56:56.987Z,76.64
2023-12-27T01:05:08.088Z,76.12
2023-12-27T01:09:40.465Z,76.30
2023-12-27T01:14:11.938Z,76.29
2023-12-27T01:18:45.432Z,76.36
2023-12-27T01:23:15.408Z,76.25
2023-12-27T01:27:46.768Z,76.01
2023-12-27T01:31:21.563Z,76.25
2023-12-27T01:34:58.587Z,76.78
2023-12-27T01:38:37.358Z,77.23
2023-12-27T01:42:18.657Z,77.79
2023-12-27T01:46:00.623Z,78.19
2023-12-27T01:50:27.579Z,78.74
2023-12-27T01:54:38.185Z,79.21
2023-12-27T01:59:18.261Z,79.57
2023-12-27T02:03:18.115Z,79.76
2023-12-27T02:11:08.827Z,80.00
2023-12-27T02:15:15.801Z,80.15
2023-12-27T02:19:21.414Z,80.13
2023-12-27T02:23:03.886Z,80.12
2023-12-27T02:27:10.536Z,80.28
2023-12-27T03:11:21.175Z,78.30
2023-12-27T03:15:28.697Z,78.27
2023-12-27T03:28:05.404Z,77.91
2023-12-27T03:32:54.664Z,77.81
2023-12-27T04:56:25.207Z,81.20
2023-12-27T05:24:00.921Z,82.03
2023-12-27T05:28:03.452Z,82.26
2023-12-27T05:31:44.747Z,82.37
2023-12-27T05:35:43.072Z,82.42
2023-12-27T05:39:25.652Z,82.50
2023-12-27T05:43:02.554Z,82.60
2023-12-27T05:46:39.013Z,82.69
2023-12-27T05:50:57.687Z,82.80
2023-12-27T05:55:08.028Z,82.94
2023-12-27T05:59:19.390Z,83.00
2023-12-27T06:02:14.867Z,83.19
2023-12-27T06:04:42.514Z,83.26
2023-12-27T06:07:09.765Z,83.34
2023-12-27T06:09:37.067Z,83.41
2023-12-27T06:12:05.234Z,83.49
2023-12-27T06:14:32.787Z,83.44
2023-12-27T06:17:00.216Z,83.48
2023-12-27T06:19:29.328Z,83.55
2023-12-27T06:21:56.945Z,83.43
2023-12-27T06:24:25.031Z,83.49
2023-12-27T06:26:52.394Z,83.67
2023-12-27T06:29:19.863Z,83.71
2023-12-27T06:31:47.295Z,83.74
2023-12-27T06:34:15.730Z,83.83
2023-12-27T06:36:43.293Z,83.84
2023-12-27T06:39:10.986Z,83.85
2023-12-27T06:41:38.329Z,84.07
2023-12-27T06:44:06.184Z,83.96
2023-12-27T06:46:33.528Z,84.01
2023-12-27T06:49:00.900Z,84.10
2023-12-27T06:51:28.308Z,84.18
2023-12-27T06:53:55.691Z,84.23
2023-12-27T06:56:23.588Z,84.29
2023-12-27T06:58:51.137Z,84.32
2023-12-27T07:01:18.715Z,84.41
2023-12-27T07:03:46.371Z,84.52
2023-12-27T07:06:13.941Z,84.48
2023-12-27T07:08:41.515Z,84.42
2023-12-27T07:11:11.637Z,84.42
2023-12-27T07:13:39.058Z,84.49
2023-12-27T07:16:09.041Z,84.50
2023-12-27T07:18:36.389Z,84.61
2023-12-27T07:21:06.610Z,84.65
2023-12-27T07:23:34.472Z,84.65
2023-12-27T07:26:02.345Z,84.59
2023-12-27T07:28:30.472Z,84.61
2023-12-27T07:30:59.411Z,84.63
2023-12-27T07:33:27.261Z,84.62
2023-12-27T07:35:55.430Z,84.50
2023-12-27T07:38:25.835Z,84.51
2023-12-27T07:40:53.416Z,84.50
2023-12-27T07:43:23.339Z,84.49
2023-12-27T07:45:51.903Z,84.41
2023-12-27T07:48:19.954Z,84.30
2023-12-27T07:50:48.102Z,84.20
2023-12-27T07:53:17.472Z,84.10
2023-12-27T07:55:45.011Z,83.98
2023-12-27T07:58:12.470Z,83.83
2023-12-27T08:00:40.198Z,83.72
2023-12-27T08:03:09.828Z,83.67
2023-12-27T08:05:38.101Z,83.53
2023-12-27T08:08:06.018Z,83.37
2023-12-27T08:10:33.606Z,83.30
2023-12-27T08:13:03.213Z,83.18
2023-12-27T08:15:30.673Z,83.02
2023-12-27T08:17:58.621Z,82.93
2023-12-27T08:20:26.815Z,82.87
2023-12-27T08:22:54.438Z,82.81
2023-12-27T08:25:21.913Z,82.70
2023-12-27T08:27:49.474Z,82.53
2023-12-27T08:30:17.580Z,82.40
2023-12-27T08:32:45.143Z,82.35
2023-12-27T08:35:12.464Z,82.26
2023-12-27T08:37:39.962Z,82.21
2023-12-27T08:40:11.016Z,81.98
2023-12-27T08:42:40.020Z,81.89
2023-12-27T08:45:27.046Z,81.80
2023-12-27T08:47:58.039Z,81.75
2023-12-27T08:50:27.534Z,81.65
2023-12-27T08:53:12.006Z,81.49
2023-12-27T08:55:53.840Z,81.33
2023-12-27T08:58:35.769Z,81.18
2023-12-27T09:01:05.592Z,81.04
2023-12-27T09:03:34.438Z,80.73
2023-12-27T09:06:03.509Z,80.66
2023-12-27T09:08:31.639Z,80.45
2023-12-27T09:11:07.360Z,80.23
2023-12-27T09:13:36.251Z,80.04
2023-12-27T09:16:11.021Z,79.85
2023-12-27T09:18:47.736Z,79.59
2023-12-27T09:21:30.684Z,79.44
2023-12-27T09:24:16.470Z,78.80
2023-12-27T09:26:44.048Z,78.67
2023-12-27T09:29:12.900Z,78.11
2023-12-27T09:31:42.073Z,78.08
2023-12-27T09:34:09.842Z,78.29
2023-12-27T09:36:41.244Z,78.02
2023-12-27T09:39:12.607Z,78.03
2023-12-27T09:41:42.111Z,77.90
2023-12-27T09:44:14.709Z,77.78
2023-12-27T09:46:42.546Z,77.52
2023-12-27T09:49:10.586Z,76.96
2023-12-27T09:51:40.750Z,77.01
2023-12-27T09:54:08.462Z,76.89
2023-12-27T09:56:38.015Z,76.82
2023-12-27T09:59:08.631Z,76.74
2023-12-27T10:01:41.346Z,76.53
2023-12-27T10:04:35.947Z,76.48
2023-12-27T10:07:05.622Z,76.08
2023-12-27T10:10:12.296Z,75.76
2023-12-27T10:16:33.685Z,75.50
2023-12-27T10:19:09.638Z,75.44
2023-12-27T10:23:08.807Z,75.11
2023-12-27T10:29:18.517Z,75.08
2023-12-27T10:31:51.423Z,74.98
2023-12-27T10:34:29.110Z,74.90
2023-12-27T10:37:27.768Z,74.37
2023-12-27T10:40:10.147Z,74.69
2023-12-27T10:43:00.487Z,74.79
2023-12-27T10:45:30.365Z,74.64
2023-12-27T10:48:03.517Z,74.44
2023-12-27T10:50:36.138Z,74.35
2023-12-27T10:53:09.735Z,74.07
2023-12-27T10:55:45.786Z,74.38
2023-12-27T10:58:25.084Z,74.82
2023-12-27T11:00:59.166Z,74.47
2023-12-27T11:03:32.328Z,74.38
2023-12-27T11:06:02.980Z,73.62
2023-12-27T11:08:36.041Z,73.66
2023-12-27T11:11:09.636Z,73.44
2023-12-27T11:13:38.769Z,73.28
2023-12-27T11:16:30.486Z,73.42
2023-12-27T11:19:03.077Z,73.28
2023-12-27T11:21:34.312Z,73.14
2023-12-27T11:24:08.071Z,73.02
2023-12-27T11:26:43.165Z,72.77
2023-12-27T11:29:20.810Z,73.20
2023-12-27T11:31:56.621Z,73.27
2023-12-27T11:34:37.581Z,72.78
2023-12-27T11:37:09.866Z,72.97
2023-12-27T11:39:51.993Z,73.24
2023-12-27T11:42:24.720Z,73.27
2023-12-27T11:45:01.963Z,73.21
2023-12-27T11:47:33.509Z,73.37
2023-12-27T11:50:16.653Z,73.32
2023-12-27T11:52:59.732Z,73.32
2023-12-27T11:55:38.487Z,73.66
2023-12-27T11:58:10.462Z,73.36
2023-12-27T12:00:51.660Z,73.04
2023-12-27T12:03:42.067Z,72.78
2023-12-27T12:06:46.687Z,72.96
2023-12-27T12:09:22.680Z,72.65
2023-12-27T12:11:58.084Z,72.71
2023-12-27T12:14:30.799Z,72.96
2023-12-27T12:17:02.102Z,73.03
2023-12-27T12:19:36.419Z,73.29
2023-12-27T12:22:08.436Z,73.24
2023-12-27T12:24:39.425Z,73.16
2023-12-27T12:27:31.919Z,73.28
2023-12-27T12:30:51.726Z,72.35
2023-12-27T12:37:04.514Z,73.14
2023-12-27T12:40:24.324Z,73.07
2023-12-27T12:43:07.372Z,73.55
2023-12-27T12:46:04.200Z,73.52
2023-12-27T12:55:15.461Z,73.33
2023-12-27T12:57:59.372Z,73.48
2023-12-27T13:08:11.438Z,73.89
2023-12-27T13:11:23.424Z,74.11
2023-12-27T13:13:54.560Z,74.05
2023-12-27T14:15:15.697Z,75.86
2023-12-27T14:17:46.816Z,76.00
2023-12-27T14:20:15.261Z,76.44
2023-12-27T14:22:43.657Z,76.60
2023-12-27T14:25:12.825Z,76.70
2023-12-27T14:27:41.529Z,76.93
2023-12-27T14:30:13.098Z,77.15
2023-12-27T14:32:41.878Z,77.42
2023-12-27T14:35:09.712Z,77.70
2023-12-27T14:37:41.478Z,78.02
2023-12-27T14:40:11.586Z,78.33
2023-12-27T14:42:39.497Z,78.53
2023-12-27T14:45:10.718Z,78.70
2023-12-27T14:47:38.944Z,78.80
2023-12-27T14:50:08.196Z,78.92
2023-12-27T14:52:37.434Z,79.04
2023-12-27T14:55:07.982Z,79.29
2023-12-27T14:57:35.901Z,79.61
2023-12-27T15:00:04.970Z,80.02
2023-12-27T15:02:32.828Z,80.37
2023-12-27T15:05:00.720Z,80.70
2023-12-27T15:07:28.572Z,80.95
2023-12-27T15:09:56.841Z,81.21
2023-12-27T15:12:25.674Z,81.43
2023-12-27T15:14:56.854Z,81.54
2023-12-27T15:17:25.424Z,81.69
2023-12-27T15:19:53.480Z,81.94
2023-12-27T15:22:21.420Z,82.11
2023-12-27T15:24:49.260Z,82.26
2023-12-27T15:27:18.867Z,82.39
2023-12-27T15:29:48.400Z,82.51
2023-12-27T15:32:16.586Z,82.60
2023-12-27T15:34:44.629Z,82.74
2023-12-27T15:37:17.458Z,82.99
2023-12-27T15:39:47.170Z,83.34
2023-12-27T15:42:16.170Z,83.51
2023-12-27T15:44:44.113Z,83.60
2023-12-27T15:47:13.716Z,83.68
2023-12-27T15:49:41.876Z,83.77
2023-12-27T15:52:09.755Z,83.90
2023-12-27T15:54:37.962Z,84.04
2023-12-27T15:57:05.926Z,84.20
2023-12-27T15:59:33.904Z,84.21
2023-12-27T16:02:03.522Z,84.36
2023-12-27T16:04:31.697Z,84.54
2023-12-27T16:06:59.943Z,84.69
2023-12-27T16:09:28.166Z,84.84
2023-12-27T16:11:56.743Z,84.94
2023-12-27T16:14:24.565Z,85.08
2023-12-27T16:16:52.519Z,85.17
2023-12-27T16:19:20.476Z,85.21
2023-12-27T16:21:48.737Z,85.29
2023-12-27T16:24:17.106Z,85.39
2023-12-27T16:26:45.018Z,85.47
2023-12-27T16:29:12.802Z,85.50
2023-12-27T16:31:40.871Z,85.59
2023-12-27T16:34:09.063Z,86.00
2023-12-27T16:36:37.128Z,85.87
2023-12-27T16:39:05.032Z,85.75
2023-12-27T16:41:32.843Z,85.67
2023-12-27T16:44:00.788Z,85.36
2023-12-27T16:46:29.103Z,85.02
2023-12-27T16:48:59.421Z,85.00
2023-12-27T16:51:27.843Z,84.98
2023-12-27T16:53:56.060Z,84.93
2023-12-27T16:56:23.968Z,84.73
2023-12-27T16:58:52.320Z,84.40
2023-12-27T17:01:20.124Z,84.08
2023-12-27T17:03:48.025Z,83.72
2023-12-27T17:06:16.377Z,83.43
2023-12-27T17:08:44.121Z,83.20
2023-12-27T17:11:11.877Z,83.07
2023-12-27T17:13:39.726Z,83.02
2023-12-27T17:16:10.772Z,82.97
2023-12-27T17:18:38.901Z,82.81
2023-12-27T17:21:08.065Z,82.66
2023-12-27T17:23:37.200Z,82.48
2023-12-27T17:26:09.346Z,82.38
2023-12-27T17:28:37.385Z,82.28
2023-12-27T17:31:05.694Z,82.19
2023-12-27T17:33:33.537Z,82.10
2023-12-27T17:36:01.703Z,82.04
2023-12-27T17:38:29.365Z,82.00
2023-12-27T17:40:57.659Z,82.00
2023-12-27T17:43:25.419Z,81.95
2023-12-27T17:45:55.580Z,81.83
2023-12-27T17:48:24.886Z,81.71
2023-12-27T17:50:53.013Z,81.67
2023-12-27T17:53:22.723Z,81.64
2023-12-27T17:55:53.457Z,81.55
2023-12-27T17:58:21.199Z,81.42
2023-12-27T18:00:49.892Z,81.40
2023-12-27T18:03:17.885Z,81.32
2023-12-27T18:05:48.985Z,81.26
2023-12-27T18:08:16.773Z,81.14
2023-12-27T18:10:45.705Z,81.10
2023-12-27T18:13:13.846Z,81.10
2023-12-27T18:15:43.005Z,81.08
2023-12-27T18:18:11.317Z,81.10
2023-12-27T18:20:39.383Z,81.13
2023-12-27T18:23:07.157Z,81.20
2023-12-27T18:25:35.053Z,81.18
2023-12-27T18:28:04.430Z,81.19
2023-12-27T18:30:32.553Z,81.28
2023-12-27T18:33:00.930Z,81.22
2023-12-27T18:35:29.049Z,81.20
2023-12-27T18:37:57.522Z,81.25
2023-12-27T18:40:26.039Z,81.26
2023-12-27T18:42:54.967Z,81.19
2023-12-27T18:45:23.125Z,81.16
2023-12-27T18:47:51.482Z,81.11
2023-12-27T18:50:19.768Z,81.10
2023-12-27T18:52:47.709Z,81.15
2023-12-27T18:55:15.496Z,81.28
2023-12-27T18:57:44.236Z,81.35
2023-12-27T19:00:14.183Z,81.38
2023-12-27T19:02:43.406Z,81.34
2023-12-27T19:05:12.030Z,81.37
2023-12-27T19:07:40.841Z,81.40
2023-12-27T19:10:12.071Z,81.41
2023-12-27T19:12:40.945Z,81.40
2023-12-27T19:15:10.839Z,81.45
2023-12-27T19:17:39.549Z,81.53
2023-12-27T19:20:10.965Z,81.61
2023-12-27T19:22:41.779Z,81.78
2023-12-27T19:25:10.890Z,81.82
2023-12-27T19:27:40.029Z,81.80
2023-12-27T19:30:12.494Z,81.83
2023-12-27T19:32:42.153Z,81.99
2023-12-27T19:35:12.487Z,82.04
2023-12-27T19:37:43.179Z,82.17
2023-12-27T19:40:12.617Z,82.20
2023-12-27T19:42:41.213Z,82.28
2023-12-27T19:45:10.437Z,82.51
2023-12-27T19:47:39.173Z,82.43
2023-12-27T19:50:08.784Z,82.40
2023-12-27T19:52:37.653Z,82.45
2023-12-27T19:55:13.376Z,82.51
2023-12-27T19:57:42.920Z,82.62
2023-12-27T20:00:14.458Z,82.68
2023-12-27T20:02:43.594Z,82.80
2023-12-27T20:05:12.578Z,82.81
2023-12-27T20:07:41.798Z,82.76
2023-12-27T20:10:11.432Z,82.78
2023-12-27T20:12:40.599Z,82.74
2023-12-27T20:15:10.407Z,82.76
2023-12-27T20:17:39.932Z,82.75
2023-12-27T20:20:09.557Z,82.72
2023-12-27T20:22:38.545Z,82.70
2023-12-27T20:25:08.279Z,82.66
2023-12-27T20:27:37.240Z,82.58
2023-12-27T20:30:07.503Z,82.51
2023-12-27T20:32:36.489Z,82.50
2023-12-27T20:35:06.348Z,82.45
2023-12-27T20:37:35.484Z,82.32
2023-12-27T20:40:05.611Z,82.24
2023-12-27T20:42:35.299Z,82.03
2023-12-27T20:45:07.362Z,81.82
2023-12-27T20:47:37.994Z,81.51
2023-12-27T20:50:07.394Z,81.40
2023-12-27T20:52:36.617Z,81.35
2023-12-27T20:55:11.129Z,81.22
2023-12-27T20:57:40.767Z,81.10
2023-12-27T21:00:09.588Z,81.09
2023-12-27T21:02:38.101Z,80.90
2023-12-27T21:05:06.749Z,80.78
2023-12-27T21:07:35.270Z,80.70
2023-12-27T21:10:06.131Z,80.61
2023-12-27T21:12:42.392Z,80.53
2023-12-27T21:15:14.357Z,80.42
2023-12-27T21:17:46.025Z,80.36
2023-12-27T21:20:15.467Z,80.28
2023-12-27T21:22:44.949Z,80.21
2023-12-27T21:25:19.122Z,80.13
2023-12-27T21:27:50.929Z,80.09
2023-12-27T21:30:19.218Z,80.03
2023-12-27T21:32:49.932Z,80.00
2023-12-27T21:35:17.663Z,80.01
2023-12-27T21:37:45.537Z,80.00
2023-12-27T21:40:13.288Z,80.03
2023-12-27T21:42:41.089Z,80.10
2023-12-27T21:45:10.238Z,80.16
2023-12-27T21:47:39.848Z,80.21
2023-12-27T21:50:08.650Z,80.21
2023-12-27T21:52:37.141Z,80.21
2023-12-27T21:55:06.030Z,80.20
2023-12-27T21:57:33.734Z,80.20
2023-12-27T22:00:01.481Z,80.21
2023-12-27T22:02:29.353Z,80.29
2023-12-27T22:04:56.933Z,80.40
2023-12-27T22:07:24.651Z,80.40
2023-12-27T22:09:52.509Z,80.46
2023-12-27T22:12:20.395Z,80.51
2023-12-27T22:14:48.060Z,80.58
2023-12-27T22:17:15.710Z,80.62
2023-12-27T22:19:43.484Z,80.70
2023-12-27T22:22:11.017Z,80.75
2023-12-27T22:24:38.678Z,80.80
2023-12-27T22:27:06.358Z,80.80
2023-12-27T22:29:34.146Z,80.89
2023-12-27T22:32:01.770Z,80.91
2023-12-27T22:34:29.427Z,81.00
2023-12-27T22:36:57.471Z,81.00
2023-12-27T22:39:25.555Z,81.02
2023-12-27T22:41:53.249Z,81.09
2023-12-27T22:44:21.133Z,81.17
2023-12-27T22:46:48.796Z,81.25
2023-12-27T22:49:16.554Z,81.30
2023-12-27T22:51:44.251Z,81.36
2023-12-27T22:54:13.652Z,81.39
2023-12-27T22:56:41.080Z,81.46
